Time;durP1;ratioP1;P1;durP2;ratioP2;P2;SDS_P1;SDS_P2;PMS_P1;PMS_P2;Temp;Humidity;BMP_temperature;BMP_pressure;BME280_temperature;BME280_humidity;BME280_pressure;Samples;Min_cycle;Max_cycle;Signal;HPM_P1;HPM_P2
2022/05/18 00:00:13;;;;;;;5.60;2.40;;;;;;;;;;525615;28;1444;-84
2022/05/18 00:00:30;;;;;;;3.50;2.10;;;;;;;;;;525960;28;1502;-84
2022/05/18 00:00:48;;;;;;;3.58;2.20;;;;;;;;;;528240;28;1558;-84
2022/05/18 00:01:10;;;;;;;4.57;2.20;;;;;;;;;;529781;27;1626;-84
2022/05/18 00:01:25;;;;;;;3.88;2.10;;;;;;;;;;530314;27;1956;-84
2022/05/18 00:01:41;;;;;;;5.03;2.10;;;;;;;;;;529551;27;1553;-84
2022/05/18 00:01:59;;;;;;;3.95;2.13;;;;;;;;;;529490;27;1424;-84
2022/05/18 00:02:14;;;;;;;3.42;2.33;;;;;;;;;;529461;27;1661;-84
2022/05/18 00:02:30;;;;;;;4.17;2.40;;;;;;;;;;525515;28;2063;-84
2022/05/18 00:02:46;;;;;;;3.97;2.20;;;;;;;;;;526252;28;1519;-84
2022/05/18 00:03:08;;;;;;;3.05;2.10;;;;;;;;;;523921;28;1536;-84
2022/05/18 00:03:27;;;;;;;3.55;2.28;;;;;;;;;;526516;28;879;-84
2022/05/18 00:03:45;;;;;;;4.40;2.35;;;;;;;;;;524023;28;1586;-84
2022/05/18 00:04:00;;;;;;;4.95;2.38;;;;;;;;;;525568;28;789;-84
2022/05/18 00:04:16;;;;;;;4.23;2.07;;;;;;;;;;521939;28;1203;-84
2022/05/18 00:04:31;;;;;;;2.97;1.90;;;;;;;;;;524016;28;848;-84
2022/05/18 00:04:47;;;;;;;3.80;2.10;;;;;;;;;;521928;28;1276;-83
2022/05/18 00:05:03;;;;;;;3.92;2.20;;;;;;;;;;525193;28;1837;-84
2022/05/18 00:05:18;;;;;;;3.10;2.10;;;;;;;;;;526137;28;919;-84
2022/05/18 00:05:40;;;;;;;3.00;2.20;;;;;;;;;;525744;28;1531;-84
2022/05/18 00:05:59;;;;;;;3.17;2.20;;;;;;;;;;527895;28;1281;-84
2022/05/18 00:06:14;;;;;;;3.38;2.10;;;;;;;;;;527954;28;1113;-84
2022/05/18 00:06:30;;;;;;;3.00;1.93;;;;;;;;;;528040;28;918;-83
2022/05/18 00:06:45;;;;;;;3.03;2.00;;;;;;;;;;529792;27;1087;-84
2022/05/18 00:07:00;;;;;;;3.53;2.20;;;;;;;;;;530179;27;1756;-84
2022/05/18 00:07:16;;;;;;;2.90;2.10;;;;;;;;;;530218;27;1205;-84
2022/05/18 00:07:32;;;;;;;2.65;2.00;;;;;;;;;;530255;27;1585;-83
2022/05/18 00:07:47;;;;;;;3.55;2.10;;;;;;;;;;530450;27;902;-84
2022/05/18 00:08:05;;;;;;;4.10;2.10;;;;;;;;;;530590;27;815;-83
2022/05/18 00:08:21;;;;;;;3.78;2.10;;;;;;;;;;529954;27;1658;-84
2022/05/18 00:08:36;;;;;;;3.13;2.10;;;;;;;;;;530443;27;918;-83
2022/05/18 00:08:51;;;;;;;3.53;2.33;;;;;;;;;;528245;28;1689;-84
2022/05/18 00:09:07;;;;;;;4.30;2.40;;;;;;;;;;529201;27;816;-83
2022/05/18 00:09:22;;;;;;;4.13;2.38;;;;;;;;;;530203;27;1585;-83
2022/05/18 00:09:38;;;;;;;4.20;2.40;;;;;;;;;;528727;27;1578;-83
2022/05/18 00:09:53;;;;;;;3.72;2.20;;;;;;;;;;528210;27;1608;-83
2022/05/18 00:10:09;;;;;;;3.20;2.30;;;;;;;;;;528121;27;1663;-83
2022/05/18 00:10:25;;;;;;;2.77;2.30;;;;;;;;;;528227;28;1584;-84
2022/05/18 00:10:43;;;;;;;2.35;2.10;;;;;;;;;;528465;28;910;-84
2022/05/18 00:10:59;;;;;;;3.10;2.25;;;;;;;;;;525386;28;1553;-84
2022/05/18 00:11:17;;;;;;;4.38;2.40;;;;;;;;;;526621;28;855;-84
2022/05/18 00:11:33;;;;;;;4.88;2.22;;;;;;;;;;525264;28;1618;-84
2022/05/18 00:11:49;;;;;;;4.22;2.40;;;;;;;;;;527830;28;1052;-84
2022/05/18 00:12:04;;;;;;;5.20;2.80;;;;;;;;;;527633;28;1630;-84
2022/05/18 00:12:20;;;;;;;5.53;2.95;;;;;;;;;;526470;28;1006;-84
2022/05/18 00:12:43;;;;;;;4.45;2.67;;;;;;;;;;524364;28;1606;-83
2022/05/18 00:12:59;;;;;;;3.83;2.38;;;;;;;;;;527312;28;860;-84
2022/05/18 00:13:15;;;;;;;3.83;2.35;;;;;;;;;;526512;28;1534;-84
2022/05/18 00:13:30;;;;;;;3.17;2.30;;;;;;;;;;528875;27;886;-84
2022/05/18 00:13:48;;;;;;;3.78;2.50;;;;;;;;;;530506;27;1274;-84
2022/05/18 00:14:03;;;;;;;4.72;2.45;;;;;;;;;;530364;27;1605;-84
2022/05/18 00:14:18;;;;;;;4.70;2.40;;;;;;;;;;528185;28;1471;-84
2022/05/18 00:14:34;;;;;;;4.80;2.50;;;;;;;;;;529926;27;1487;-84
2022/05/18 00:14:50;;;;;;;3.70;2.20;;;;;;;;;;530519;27;1680;-84
2022/05/18 00:15:05;;;;;;;2.83;2.07;;;;;;;;;;530328;27;1801;-84
2022/05/18 00:15:23;;;;;;;3.78;2.20;;;;;;;;;;529974;27;1359;-84
2022/05/18 00:15:39;;;;;;;4.22;2.30;;;;;;;;;;530572;27;966;-84
2022/05/18 00:15:55;;;;;;;4.13;2.40;;;;;;;;;;528262;28;1931;-84
2022/05/18 00:16:11;;;;;;;4.05;2.35;;;;;;;;;;529154;27;1590;-84
2022/05/18 00:16:27;;;;;;;4.88;2.42;;;;;;;;;;530602;27;1013;-84
2022/05/18 00:16:42;;;;;;;4.77;2.33;;;;;;;;;;530708;27;910;-84
2022/05/18 00:17:00;;;;;;;3.17;2.20;;;;;;;;;;530432;27;1573;-84
2022/05/18 00:17:15;;;;;;;4.22;2.30;;;;;;;;;;530462;27;894;-84
2022/05/18 00:17:30;;;;;;;5.28;2.40;;;;;;;;;;529933;28;1596;-84
2022/05/18 00:17:46;;;;;;;4.97;2.40;;;;;;;;;;530262;28;803;-84
2022/05/18 00:18:02;;;;;;;4.93;2.20;;;;;;;;;;530206;27;1330;-84
2022/05/18 00:18:17;;;;;;;5.10;2.20;;;;;;;;;;530354;27;1253;-84
2022/05/18 00:18:33;;;;;;;4.13;2.40;;;;;;;;;;530459;27;1180;-84
2022/05/18 00:18:49;;;;;;;3.15;2.30;;;;;;;;;;530491;27;839;-84
2022/05/18 00:19:04;;;;;;;4.00;2.40;;;;;;;;;;530579;27;855;-84
2022/05/18 00:19:19;;;;;;;4.43;2.33;;;;;;;;;;530477;27;1495;-84
2022/05/18 00:19:35;;;;;;;4.47;2.20;;;;;;;;;;530785;27;839;-84
2022/05/18 00:19:50;;;;;;;4.50;2.35;;;;;;;;;;529968;27;1561;-83
2022/05/18 00:20:07;;;;;;;3.53;2.40;;;;;;;;;;530723;27;890;-83
2022/05/18 00:20:23;;;;;;;3.08;2.22;;;;;;;;;;530798;27;871;-83
2022/05/18 00:20:39;;;;;;;3.30;2.20;;;;;;;;;;530646;27;1482;-84
2022/05/18 00:20:54;;;;;;;3.83;2.37;;;;;;;;;;530814;27;783;-84
2022/05/18 00:21:10;;;;;;;3.85;2.47;;;;;;;;;;530033;27;1517;-84
2022/05/18 00:21:25;;;;;;;3.30;2.40;;;;;;;;;;530495;27;831;-84
2022/05/18 00:21:41;;;;;;;2.97;2.38;;;;;;;;;;529744;27;1906;-84
2022/05/18 00:21:57;;;;;;;4.25;2.50;;;;;;;;;;528581;28;1284;-84
2022/05/18 00:22:12;;;;;;;4.55;2.50;;;;;;;;;;525875;28;1444;-84
2022/05/18 00:22:28;;;;;;;4.27;2.47;;;;;;;;;;526389;28;1147;-84
2022/05/18 00:22:49;;;;;;;4.00;2.33;;;;;;;;;;526391;28;1002;-84
2022/05/18 00:23:05;;;;;;;3.92;2.20;;;;;;;;;;527494;28;946;-84
2022/05/18 00:23:20;;;;;;;5.10;2.15;;;;;;;;;;527872;28;1554;-84
2022/05/18 00:23:35;;;;;;;3.73;2.00;;;;;;;;;;526190;28;1274;-84
2022/05/18 00:23:51;;;;;;;2.60;2.00;;;;;;;;;;526772;28;1361;-83
2022/05/18 00:24:07;;;;;;;3.35;2.22;;;;;;;;;;526377;28;867;-84
2022/05/18 00:24:23;;;;;;;4.53;2.33;;;;;;;;;;529704;27;1170;-84
2022/05/18 00:24:38;;;;;;;4.17;2.30;;;;;;;;;;530743;27;1354;-84
2022/05/18 00:24:54;;;;;;;2.85;2.20;;;;;;;;;;528736;28;1202;-84
2022/05/18 00:25:09;;;;;;;2.77;2.10;;;;;;;;;;528913;28;811;-84
2022/05/18 00:25:27;;;;;;;3.20;2.33;;;;;;;;;;528435;27;1625;-83
2022/05/18 00:25:42;;;;;;;3.60;2.40;;;;;;;;;;528422;28;875;-83
2022/05/18 00:25:58;;;;;;;3.10;2.20;;;;;;;;;;527746;28;1289;-84
2022/05/18 00:26:14;;;;;;;3.50;2.00;;;;;;;;;;528509;28;1052;-84
2022/05/18 00:26:29;;;;;;;3.13;1.97;;;;;;;;;;528469;28;880;-84
2022/05/18 00:26:44;;;;;;;3.50;2.27;;;;;;;;;;528512;28;954;-84
2022/05/18 00:27:03;;;;;;;3.53;2.40;;;;;;;;;;526236;28;1141;-84
2022/05/18 00:27:18;;;;;;;3.17;2.30;;;;;;;;;;527213;28;1587;-84
2022/05/18 00:27:36;;;;;;;3.03;2.22;;;;;;;;;;528524;28;831;-84
2022/05/18 00:27:51;;;;;;;3.20;2.05;;;;;;;;;;528052;28;1471;-84
2022/05/18 00:28:07;;;;;;;3.03;2.10;;;;;;;;;;528207;28;1457;-84
2022/05/18 00:28:23;;;;;;;3.57;2.30;;;;;;;;;;527949;28;1825;-84
2022/05/18 00:28:38;;;;;;;3.85;2.30;;;;;;;;;;526023;28;1447;-84
2022/05/18 00:28:54;;;;;;;3.50;2.20;;;;;;;;;;527112;28;1559;-84
2022/05/18 00:29:09;;;;;;;3.20;2.20;;;;;;;;;;529156;27;1004;-84
2022/05/18 00:29:25;;;;;;;3.72;2.28;;;;;;;;;;530500;27;1488;-84
2022/05/18 00:29:40;;;;;;;3.63;2.20;;;;;;;;;;530681;27;974;-84
2022/05/18 00:29:55;;;;;;;3.50;2.30;;;;;;;;;;530202;27;1487;-84
2022/05/18 00:30:18;;;;;;;3.87;2.33;;;;;;;;;;529881;27;1636;-84
2022/05/18 00:30:34;;;;;;;4.45;2.58;;;;;;;;;;528652;28;827;-84
2022/05/18 00:30:50;;;;;;;4.32;2.60;;;;;;;;;;528669;27;1621;-84
2022/05/18 00:31:05;;;;;;;3.92;2.38;;;;;;;;;;530205;27;1371;-84
2022/05/18 00:31:20;;;;;;;4.03;2.30;;;;;;;;;;530690;27;827;-83
2022/05/18 00:31:36;;;;;;;4.03;2.38;;;;;;;;;;530400;27;1248;-83
2022/05/18 00:31:51;;;;;;;3.80;2.37;;;;;;;;;;530464;27;1281;-84
2022/05/18 00:32:07;;;;;;;3.50;2.20;;;;;;;;;;530488;27;1267;-84
2022/05/18 00:32:25;;;;;;;3.42;2.22;;;;;;;;;;530533;27;1337;-84
2022/05/18 00:32:41;;;;;;;4.50;2.40;;;;;;;;;;530132;27;851;-84
2022/05/18 00:32:57;;;;;;;4.10;2.45;;;;;;;;;;528141;28;1582;-84
2022/05/18 00:33:12;;;;;;;3.93;2.50;;;;;;;;;;528256;28;1257;-84
2022/05/18 00:33:27;;;;;;;3.90;2.50;;;;;;;;;;525918;28;1483;-84
2022/05/18 00:33:43;;;;;;;3.78;2.53;;;;;;;;;;526205;28;1404;-84
2022/05/18 00:33:58;;;;;;;4.10;2.60;;;;;;;;;;526108;28;1488;-84
2022/05/18 00:34:14;;;;;;;4.23;2.50;;;;;;;;;;525044;28;1410;-84
2022/05/18 00:34:29;;;;;;;3.85;2.22;;;;;;;;;;524133;28;1552;-84
2022/05/18 00:34:45;;;;;;;3.50;2.30;;;;;;;;;;524135;28;1279;-84
2022/05/18 00:35:01;;;;;;;3.27;2.40;;;;;;;;;;524626;28;1469;-84
2022/05/18 00:35:17;;;;;;;3.08;2.25;;;;;;;;;;526503;28;1421;-84
2022/05/18 00:35:34;;;;;;;2.97;2.20;;;;;;;;;;526127;28;1170;-84
2022/05/18 00:35:50;;;;;;;3.45;2.20;;;;;;;;;;526295;28;1016;-84
2022/05/18 00:36:05;;;;;;;3.50;2.33;;;;;;;;;;526919;28;1582;-84
2022/05/18 00:36:20;;;;;;;3.67;2.30;;;;;;;;;;528591;28;1014;-84
2022/05/18 00:36:36;;;;;;;4.30;2.22;;;;;;;;;;528250;28;1546;-84
2022/05/18 00:36:52;;;;;;;4.63;2.40;;;;;;;;;;526173;28;1510;-84
2022/05/18 00:37:07;;;;;;;4.47;2.50;;;;;;;;;;525542;28;1413;-84
2022/05/18 00:37:22;;;;;;;3.83;2.47;;;;;;;;;;523960;28;1575;-84
2022/05/18 00:37:38;;;;;;;3.70;2.50;;;;;;;;;;525891;28;1376;-84
2022/05/18 00:37:53;;;;;;;3.10;2.50;;;;;;;;;;525250;28;1464;-84
2022/05/18 00:38:09;;;;;;;2.97;2.33;;;;;;;;;;525595;28;1153;-84
2022/05/18 00:38:26;;;;;;;3.67;2.30;;;;;;;;;;524646;28;1409;-84
2022/05/18 00:38:41;;;;;;;3.67;2.33;;;;;;;;;;526644;28;927;-84
2022/05/18 00:38:57;;;;;;;3.60;2.37;;;;;;;;;;525799;28;1598;-84
2022/05/18 00:39:12;;;;;;;3.58;2.25;;;;;;;;;;524145;28;1190;-84
2022/05/18 00:39:27;;;;;;;4.23;2.40;;;;;;;;;;525544;28;1631;-84
2022/05/18 00:39:43;;;;;;;4.43;2.53;;;;;;;;;;526254;28;955;-84
2022/05/18 00:39:59;;;;;;;3.85;2.50;;;;;;;;;;526923;28;910;-83
2022/05/18 00:40:19;;;;;;;3.67;2.60;;;;;;;;;;528531;28;957;-83
2022/05/18 00:40:36;;;;;;;3.92;2.40;;;;;;;;;;526450;28;844;-83
2022/05/18 00:40:52;;;;;;;3.28;2.25;;;;;;;;;;527766;27;1475;-84
2022/05/18 00:41:07;;;;;;;3.23;2.30;;;;;;;;;;530446;27;1604;-84
2022/05/18 00:41:23;;;;;;;3.63;2.30;;;;;;;;;;530731;27;854;-84
2022/05/18 00:41:38;;;;;;;3.50;2.20;;;;;;;;;;530319;27;1957;-84
2022/05/18 00:41:54;;;;;;;3.67;2.30;;;;;;;;;;529981;27;1314;-84
2022/05/18 00:42:20;;;;;;;4.15;2.40;;;;;;;;;;527824;28;1503;-84
2022/05/18 00:42:35;;;;;;;3.33;2.45;;;;;;;;;;528169;28;1822;-84
2022/05/18 00:42:51;;;;;;;4.13;2.55;;;;;;;;;;528484;28;876;-84
2022/05/18 00:43:16;;;;;;;4.47;2.67;;;;;;;;;;528375;28;1586;-84
2022/05/18 00:43:31;;;;;;;3.92;2.58;;;;;;;;;;526086;28;1223;-84
2022/05/18 00:43:50;;;;;;;3.40;2.50;;;;;;;;;;527141;27;1606;-83
2022/05/18 00:44:06;;;;;;;3.65;2.42;;;;;;;;;;529488;27;1216;-83
2022/05/18 00:44:21;;;;;;;3.90;2.40;;;;;;;;;;529461;27;1446;-84
2022/05/18 00:44:37;;;;;;;3.93;2.40;;;;;;;;;;530680;27;788;-84
2022/05/18 00:44:52;;;;;;;4.20;2.50;;;;;;;;;;530731;27;1044;-84
2022/05/18 00:45:09;;;;;;;4.93;2.40;;;;;;;;;;528323;28;1145;-84
2022/05/18 00:45:25;;;;;;;4.15;2.40;;;;;;;;;;525855;28;1697;-84
2022/05/18 00:45:40;;;;;;;4.22;2.60;;;;;;;;;;526225;28;1058;-84
2022/05/18 00:46:01;;;;;;;5.37;2.70;;;;;;;;;;524209;28;1157;-84
2022/05/18 00:46:17;;;;;;;4.53;2.55;;;;;;;;;;525903;28;1030;-84
2022/05/18 00:46:33;;;;;;;4.40;2.70;;;;;;;;;;525841;28;1524;-84
2022/05/18 00:46:48;;;;;;;4.03;2.60;;;;;;;;;;525172;28;922;-84
2022/05/18 00:47:04;;;;;;;4.10;2.30;;;;;;;;;;525161;28;1448;-84
2022/05/18 00:47:20;;;;;;;4.35;2.22;;;;;;;;;;527678;28;1006;-83
2022/05/18 00:47:36;;;;;;;5.05;2.40;;;;;;;;;;528613;28;871;-84
2022/05/18 00:47:51;;;;;;;6.53;2.60;;;;;;;;;;529881;27;792;-84
2022/05/18 00:48:06;;;;;;;5.80;2.60;;;;;;;;;;530245;27;1656;-84
2022/05/18 00:48:22;;;;;;;4.13;2.50;;;;;;;;;;529772;27;1491;-84
2022/05/18 00:48:38;;;;;;;3.97;2.50;;;;;;;;;;528118;28;1480;-84
2022/05/18 00:48:53;;;;;;;4.13;2.55;;;;;;;;;;528102;27;1476;-84
2022/05/18 00:49:09;;;;;;;4.97;2.70;;;;;;;;;;528433;28;1470;-84
2022/05/18 00:49:25;;;;;;;5.63;2.70;;;;;;;;;;528338;28;816;-84
2022/05/18 00:49:47;;;;;;;4.45;2.60;;;;;;;;;;527907;28;1515;-84
2022/05/18 00:50:08;;;;;;;3.85;2.50;;;;;;;;;;525731;28;1539;-84
2022/05/18 00:50:35;;;;;;;3.67;2.50;;;;;;;;;;526118;28;1760;-84
2022/05/18 00:50:54;;;;;;;3.65;2.50;;;;;;;;;;526275;28;867;-84
2022/05/18 00:51:25;;;;;;;3.75;2.60;;;;;;;;;;529294;27;1550;-84
2022/05/18 00:51:49;;;;;;;5.25;2.53;;;;;;;;;;530204;27;1351;-84
2022/05/18 00:52:06;;;;;;;4.82;2.60;;;;;;;;;;529161;27;1415;-83
2022/05/18 00:52:28;;;;;;;4.35;2.47;;;;;;;;;;530384;27;1591;-83
2022/05/18 00:53:14;;;;;;;3.85;2.60;;;;;;;;;;530716;27;1028;-83
2022/05/18 00:54:12;;;;;;;4.38;2.40;;;;;;;;;;521184;27;1500;-84
2022/05/18 00:54:31;;;;;;;3.60;2.50;;;;;;;;;;524014;28;1198;-84
2022/05/18 00:54:48;;;;;;;4.35;2.53;;;;;;;;;;521861;28;1424;-84
2022/05/18 00:55:08;;;;;;;4.20;2.70;;;;;;;;;;522170;28;1437;-84
2022/05/18 00:55:25;;;;;;;5.53;2.80;;;;;;;;;;527817;28;1649;-84
2022/05/18 00:55:44;;;;;;;5.40;2.53;;;;;;;;;;528191;28;1345;-84
2022/05/18 00:56:07;;;;;;;3.67;2.70;;;;;;;;;;527883;28;1612;-84
2022/05/18 00:56:31;;;;;;;4.28;2.80;;;;;;;;;;528239;28;1928;-84
2022/05/18 00:56:52;;;;;;;4.30;2.70;;;;;;;;;;527892;28;1842;-84
2022/05/18 00:57:13;;;;;;;3.22;2.53;;;;;;;;;;527043;28;1566;-84
2022/05/18 00:57:34;;;;;;;3.50;2.60;;;;;;;;;;529522;27;1140;-84
2022/05/18 00:57:56;;;;;;;5.22;2.80;;;;;;;;;;529219;27;1613;-84
2022/05/18 00:58:37;;;;;;;3.95;2.70;;;;;;;;;;528473;27;1482;-83
2022/05/18 00:58:57;;;;;;;5.00;2.60;;;;;;;;;;519515;28;1329;-84
2022/05/18 00:59:20;;;;;;;3.78;2.50;;;;;;;;;;530465;27;896;-84
2022/05/18 00:59:44;;;;;;;3.55;2.33;;;;;;;;;;530248;27;1653;-84
2022/05/18 01:00:08;;;;;;;3.13;2.42;;;;;;;;;;529187;27;1602;-84
2022/05/18 01:00:24;;;;;;;3.30;2.45;;;;;;;;;;530287;27;1481;-85
2022/05/18 01:00:41;;;;;;;2.60;2.40;;;;;;;;;;528210;28;1467;-84
2022/05/18 01:00:57;;;;;;;2.90;2.40;;;;;;;;;;528445;28;1444;-84
2022/05/18 01:01:13;;;;;;;3.45;2.60;;;;;;;;;;525744;28;1531;-84
2022/05/18 01:01:29;;;;;;;3.22;2.45;;;;;;;;;;526191;28;1976;-84
2022/05/18 01:01:45;;;;;;;4.38;2.40;;;;;;;;;;525735;28;1468;-84
2022/05/18 01:02:02;;;;;;;4.90;2.58;;;;;;;;;;526156;28;1594;-84
2022/05/18 01:02:19;;;;;;;3.90;2.60;;;;;;;;;;525100;28;1587;-84
2022/05/18 01:02:38;;;;;;;3.90;2.40;;;;;;;;;;527639;28;920;-84
2022/05/18 01:03:03;;;;;;;4.20;2.30;;;;;;;;;;529603;27;1616;-84
2022/05/18 01:03:21;;;;;;;5.35;2.55;;;;;;;;;;532234;27;1437;-84
2022/05/18 01:03:41;;;;;;;3.92;2.50;;;;;;;;;;532647;27;852;-84
2022/05/18 01:03:57;;;;;;;4.63;2.55;;;;;;;;;;532630;27;1397;-84
2022/05/18 01:04:14;;;;;;;4.25;2.55;;;;;;;;;;530368;27;1164;-83
2022/05/18 01:04:30;;;;;;;3.45;2.63;;;;;;;;;;530715;27;839;-83
2022/05/18 01:04:48;;;;;;;3.43;2.60;;;;;;;;;;530255;27;1596;-84
2022/05/18 01:05:08;;;;;;;4.05;2.50;;;;;;;;;;530744;27;1521;-84
2022/05/18 01:05:27;;;;;;;5.30;2.70;;;;;;;;;;530116;27;1525;-84
2022/05/18 01:05:49;;;;;;;4.43;2.60;;;;;;;;;;527617;28;1481;-84
2022/05/18 01:06:16;;;;;;;3.70;2.60;;;;;;;;;;525144;28;1441;-84
2022/05/18 01:06:58;;;;;;;4.22;2.65;;;;;;;;;;528343;28;986;-84
2022/05/18 01:07:18;;;;;;;3.13;2.30;;;;;;;;;;525470;28;1547;-83
2022/05/18 01:07:39;;;;;;;3.67;2.30;;;;;;;;;;526540;28;1878;-83
2022/05/18 01:07:58;;;;;;;4.05;2.40;;;;;;;;;;527176;28;1511;-84
2022/05/18 01:08:19;;;;;;;4.85;2.60;;;;;;;;;;528003;28;1636;-84
2022/05/18 01:08:40;;;;;;;5.18;2.70;;;;;;;;;;528135;28;1596;-84
2022/05/18 01:09:02;;;;;;;3.83;2.50;;;;;;;;;;526458;28;847;-84
2022/05/18 01:09:30;;;;;;;4.70;2.30;;;;;;;;;;526600;28;1511;-84
2022/05/18 01:09:48;;;;;;;3.85;2.47;;;;;;;;;;527714;27;1408;-84
2022/05/18 01:10:05;;;;;;;4.03;2.50;;;;;;;;;;529654;27;863;-83
2022/05/18 01:10:22;;;;;;;3.40;2.25;;;;;;;;;;530381;27;1605;-83
2022/05/18 01:10:37;;;;;;;3.83;2.35;;;;;;;;;;529277;27;1561;-84
2022/05/18 01:10:53;;;;;;;3.72;2.30;;;;;;;;;;530325;27;998;-84
2022/05/18 01:11:08;;;;;;;3.40;2.40;;;;;;;;;;527822;28;1526;-84
2022/05/18 01:11:23;;;;;;;3.67;2.58;;;;;;;;;;530203;27;946;-84
2022/05/18 01:11:39;;;;;;;3.23;2.57;;;;;;;;;;529986;27;1612;-83
2022/05/18 01:11:55;;;;;;;3.40;2.43;;;;;;;;;;530394;27;1154;-83
2022/05/18 01:12:14;;;;;;;4.03;2.30;;;;;;;;;;529732;27;1633;-84
2022/05/18 01:12:30;;;;;;;3.72;2.42;;;;;;;;;;529771;27;1581;-84
2022/05/18 01:12:47;;;;;;;3.92;2.50;;;;;;;;;;528336;28;2064;-84
2022/05/18 01:13:04;;;;;;;3.90;2.50;;;;;;;;;;528460;28;875;-84
2022/05/18 01:13:20;;;;;;;3.45;2.40;;;;;;;;;;526421;28;1414;-83
2022/05/18 01:13:35;;;;;;;3.50;2.47;;;;;;;;;;524147;28;1127;-83
2022/05/18 01:13:51;;;;;;;3.27;2.50;;;;;;;;;;524411;28;1543;-84
2022/05/18 01:14:28;;;;;;;3.72;2.60;;;;;;;;;;526255;28;1618;-84
2022/05/18 01:14:50;;;;;;;4.32;2.60;;;;;;;;;;525606;28;1367;-84
2022/05/18 01:15:18;;;;;;;5.80;2.53;;;;;;;;;;525871;28;1606;-84
2022/05/18 01:15:33;;;;;;;2.85;2.30;;;;;;;;;;527329;28;1608;-84
2022/05/18 01:15:49;;;;;;;3.67;2.53;;;;;;;;;;528237;28;796;-84
2022/05/18 01:16:05;;;;;;;4.55;2.80;;;;;;;;;;527983;28;1609;-84
2022/05/18 01:16:22;;;;;;;4.53;2.65;;;;;;;;;;528200;28;993;-84
2022/05/18 01:16:38;;;;;;;5.13;2.70;;;;;;;;;;529710;27;1015;-84
2022/05/18 01:16:53;;;;;;;3.37;2.70;;;;;;;;;;530672;27;788;-84
2022/05/18 01:17:11;;;;;;;3.17;2.70;;;;;;;;;;530193;27;1643;-84
2022/05/18 01:17:31;;;;;;;4.70;2.80;;;;;;;;;;527245;28;1545;-84
2022/05/18 01:17:50;;;;;;;5.00;2.70;;;;;;;;;;529393;27;1503;-84
2022/05/18 01:18:08;;;;;;;4.55;2.70;;;;;;;;;;530558;27;1070;-84
2022/05/18 01:18:24;;;;;;;7.78;2.65;;;;;;;;;;529910;27;1660;-84
2022/05/18 01:18:39;;;;;;;7.10;2.53;;;;;;;;;;530528;27;820;-84
2022/05/18 01:18:57;;;;;;;3.88;2.55;;;;;;;;;;530067;27;1462;-84
2022/05/18 01:19:39;;;;;;;4.90;2.70;;;;;;;;;;528363;28;998;-84
2022/05/18 01:19:58;;;;;;;6.50;2.90;;;;;;;;;;529285;27;1075;-84
2022/05/18 01:20:19;;;;;;;6.13;2.72;;;;;;;;;;530234;27;1489;-84
2022/05/18 01:20:37;;;;;;;5.78;2.70;;;;;;;;;;530086;27;1386;-84
2022/05/18 01:20:53;;;;;;;4.38;2.50;;;;;;;;;;528262;28;963;-84
2022/05/18 01:21:08;;;;;;;4.07;2.50;;;;;;;;;;528267;28;1313;-84
2022/05/18 01:21:33;;;;;;;3.90;2.50;;;;;;;;;;526184;28;1248;-84
2022/05/18 01:22:02;;;;;;;5.22;2.70;;;;;;;;;;524900;28;1401;-84
2022/05/18 01:22:44;;;;;;;4.57;2.67;;;;;;;;;;526088;28;1006;-84
2022/05/18 01:23:38;;;;;;;4.30;2.55;;;;;;;;;;526300;28;1007;-84
2022/05/18 01:24:30;;;;;;;4.55;2.40;;;;;;;;;;528312;28;1338;-84
2022/05/18 01:25:09;;;;;;;4.68;2.83;;;;;;;;;;520331;28;1478;-84
2022/05/18 01:25:44;;;;;;;4.85;2.85;;;;;;;;;;517940;28;1395;-84
2022/05/18 01:26:20;;;;;;;3.35;2.60;;;;;;;;;;525147;28;1137;-84
2022/05/18 01:26:42;;;;;;;2.80;2.40;;;;;;;;;;528453;28;1603;-84
2022/05/18 01:27:00;;;;;;;5.10;2.78;;;;;;;;;;528390;28;1588;-84
2022/05/18 01:27:16;;;;;;;3.67;2.60;;;;;;;;;;528466;27;1445;-84
2022/05/18 01:27:31;;;;;;;3.77;2.40;;;;;;;;;;530287;27;1569;-84
2022/05/18 01:27:47;;;;;;;5.20;2.50;;;;;;;;;;528195;28;1173;-84
2022/05/18 01:28:05;;;;;;;4.80;2.60;;;;;;;;;;525904;28;1543;-83
2022/05/18 01:28:24;;;;;;;5.05;2.72;;;;;;;;;;526157;28;1041;-84
2022/05/18 01:28:44;;;;;;;5.25;2.75;;;;;;;;;;523867;28;1729;-84
2022/05/18 01:29:01;;;;;;;4.45;2.58;;;;;;;;;;521829;28;1026;-84
2022/05/18 01:29:21;;;;;;;3.15;2.42;;;;;;;;;;522004;28;1254;-84
2022/05/18 01:29:37;;;;;;;4.57;2.60;;;;;;;;;;520569;28;935;-84
2022/05/18 01:29:53;;;;;;;6.03;2.67;;;;;;;;;;522822;28;955;-83
2022/05/18 01:30:09;;;;;;;5.13;2.60;;;;;;;;;;524270;28;960;-83
2022/05/18 01:30:25;;;;;;;4.13;2.58;;;;;;;;;;522021;28;1873;-83
2022/05/18 01:30:46;;;;;;;4.07;2.70;;;;;;;;;;524209;28;868;-83
2022/05/18 01:31:04;;;;;;;3.30;2.60;;;;;;;;;;524407;28;1527;-83
2022/05/18 01:31:52;;;;;;;3.40;2.67;;;;;;;;;;526389;28;896;-84
2022/05/18 01:32:15;;;;;;;4.88;2.70;;;;;;;;;;529395;27;1204;-84
2022/05/18 01:33:04;;;;;;;5.78;2.63;;;;;;;;;;530745;27;967;-84
2022/05/18 01:33:21;;;;;;;5.40;2.95;;;;;;;;;;526832;28;1617;-84
2022/05/18 01:33:36;;;;;;;4.68;2.65;;;;;;;;;;526993;27;1266;-83
2022/05/18 01:33:52;;;;;;;4.68;2.50;;;;;;;;;;528124;28;1398;-84
2022/05/18 01:34:07;;;;;;;4.60;2.50;;;;;;;;;;528409;28;891;-84
2022/05/18 01:34:26;;;;;;;4.93;2.63;;;;;;;;;;528196;28;1138;-84
2022/05/18 01:34:42;;;;;;;5.22;2.70;;;;;;;;;;528031;28;1606;-84
2022/05/18 01:34:57;;;;;;;4.88;2.72;;;;;;;;;;528135;28;836;-83
2022/05/18 01:35:17;;;;;;;4.37;2.77;;;;;;;;;;528340;28;864;-83
2022/05/18 01:35:34;;;;;;;4.47;2.67;;;;;;;;;;529452;27;1389;-83
2022/05/18 01:35:49;;;;;;;4.05;2.67;;;;;;;;;;530645;27;1038;-83
2022/05/18 01:36:05;;;;;;;5.23;2.70;;;;;;;;;;530470;27;784;-83
2022/05/18 01:36:20;;;;;;;5.43;2.60;;;;;;;;;;530724;27;1236;-83
2022/05/18 01:36:36;;;;;;;4.00;2.60;;;;;;;;;;530744;27;879;-83
2022/05/18 01:36:51;;;;;;;5.10;2.70;;;;;;;;;;530464;27;800;-83
2022/05/18 01:37:07;;;;;;;5.47;2.80;;;;;;;;;;530512;27;1238;-83
2022/05/18 01:37:22;;;;;;;4.15;2.60;;;;;;;;;;530624;27;808;-83
2022/05/18 01:37:38;;;;;;;4.57;2.63;;;;;;;;;;530667;27;836;-83
2022/05/18 01:37:57;;;;;;;4.45;2.70;;;;;;;;;;528405;28;1207;-83
2022/05/18 01:38:12;;;;;;;4.38;2.65;;;;;;;;;;526364;28;1346;-84
2022/05/18 01:38:28;;;;;;;3.93;2.70;;;;;;;;;;526468;28;888;-83
2022/05/18 01:38:46;;;;;;;4.25;2.88;;;;;;;;;;527943;28;1763;-83
2022/05/18 01:39:01;;;;;;;4.13;2.90;;;;;;;;;;529415;27;863;-83
2022/05/18 01:39:36;;;;;;;4.40;2.80;;;;;;;;;;530126;27;1477;-83
2022/05/18 01:39:58;;;;;;;4.82;2.70;;;;;;;;;;528041;28;943;-83
2022/05/18 01:40:25;;;;;;;3.83;2.88;;;;;;;;;;530298;27;1483;-83
2022/05/18 01:41:08;;;;;;;5.88;2.80;;;;;;;;;;530376;27;926;-84
2022/05/18 01:41:27;;;;;;;5.03;3.13;;;;;;;;;;528282;28;931;-83
2022/05/18 01:42:28;;;;;;;4.82;3.08;;;;;;;;;;528337;28;1893;-83
2022/05/18 01:42:52;;;;;;;3.67;2.60;;;;;;;;;;525471;28;1598;-83
2022/05/18 01:43:36;;;;;;;4.22;2.75;;;;;;;;;;524903;28;1991;-84
2022/05/18 01:43:54;;;;;;;3.78;2.63;;;;;;;;;;526181;28;1728;-84
2022/05/18 01:44:10;;;;;;;3.65;2.80;;;;;;;;;;527656;28;1225;-84
2022/05/18 01:44:26;;;;;;;4.43;2.80;;;;;;;;;;526709;28;1474;-83
2022/05/18 01:44:41;;;;;;;4.87;2.80;;;;;;;;;;524225;28;1462;-83
2022/05/18 01:44:57;;;;;;;4.07;2.70;;;;;;;;;;524789;28;962;-83
2022/05/18 01:45:13;;;;;;;3.47;2.65;;;;;;;;;;526357;28;1211;-83
2022/05/18 01:45:29;;;;;;;4.40;2.78;;;;;;;;;;527577;28;1476;-83
2022/05/18 01:45:50;;;;;;;4.65;2.88;;;;;;;;;;528244;28;1373;-84
2022/05/18 01:46:09;;;;;;;4.32;2.80;;;;;;;;;;528362;28;1487;-84
2022/05/18 01:46:27;;;;;;;4.28;2.60;;;;;;;;;;529361;28;1609;-83
2022/05/18 01:46:43;;;;;;;4.25;2.60;;;;;;;;;;530267;27;2002;-83
2022/05/18 01:46:58;;;;;;;4.10;2.60;;;;;;;;;;530441;28;827;-83
2022/05/18 01:47:16;;;;;;;4.33;2.70;;;;;;;;;;530269;27;1606;-83
2022/05/18 01:47:33;;;;;;;4.07;2.67;;;;;;;;;;530425;27;1681;-83
2022/05/18 01:47:50;;;;;;;3.85;2.60;;;;;;;;;;530576;27;911;-83
2022/05/18 01:48:16;;;;;;;4.60;2.58;;;;;;;;;;530346;27;1572;-84
2022/05/18 01:48:35;;;;;;;5.43;2.70;;;;;;;;;;528153;28;1061;-83
2022/05/18 01:48:53;;;;;;;4.00;2.50;;;;;;;;;;528281;28;956;-84
2022/05/18 01:49:08;;;;;;;4.00;2.55;;;;;;;;;;526108;28;1267;-84
2022/05/18 01:49:24;;;;;;;4.37;2.60;;;;;;;;;;526167;28;986;-83
2022/05/18 01:49:41;;;;;;;5.03;2.50;;;;;;;;;;523913;28;1198;-83
2022/05/18 01:49:57;;;;;;;6.25;2.80;;;;;;;;;;523872;28;1034;-83
2022/05/18 01:50:16;;;;;;;5.38;2.88;;;;;;;;;;524107;28;1642;-84
2022/05/18 01:50:31;;;;;;;5.13;2.90;;;;;;;;;;526101;28;1213;-84
2022/05/18 01:50:48;;;;;;;5.40;2.80;;;;;;;;;;525917;28;1618;-84
2022/05/18 01:51:05;;;;;;;4.35;2.67;;;;;;;;;;527284;28;1200;-83
2022/05/18 01:51:38;;;;;;;3.50;2.50;;;;;;;;;;528384;28;856;-83
2022/05/18 01:51:56;;;;;;;5.50;2.75;;;;;;;;;;529499;27;1014;-84
2022/05/18 01:52:11;;;;;;;5.87;2.67;;;;;;;;;;528192;28;848;-83
2022/05/18 01:52:27;;;;;;;5.88;2.80;;;;;;;;;;529496;28;880;-83
2022/05/18 01:52:42;;;;;;;5.10;2.85;;;;;;;;;;530504;27;816;-84
2022/05/18 01:52:58;;;;;;;5.23;2.83;;;;;;;;;;530457;27;950;-83
2022/05/18 01:53:13;;;;;;;5.37;2.80;;;;;;;;;;530515;27;978;-83
2022/05/18 01:53:29;;;;;;;4.63;2.90;;;;;;;;;;530409;27;863;-83
2022/05/18 01:53:45;;;;;;;5.88;2.83;;;;;;;;;;527722;28;1558;-84
2022/05/18 01:54:00;;;;;;;6.57;2.83;;;;;;;;;;528611;27;1485;-83
2022/05/18 01:54:16;;;;;;;4.83;2.80;;;;;;;;;;530326;27;1424;-84
2022/05/18 01:54:43;;;;;;;4.37;2.60;;;;;;;;;;530450;27;876;-83
2022/05/18 01:54:59;;;;;;;5.75;2.78;;;;;;;;;;530069;27;1482;-84
2022/05/18 01:55:17;;;;;;;5.97;2.80;;;;;;;;;;530532;27;1022;-83
2022/05/18 01:55:33;;;;;;;5.00;3.00;;;;;;;;;;530624;27;828;-83